ADDS METAR Data INFO
IDs: Format: Raw Decoded Include TAF

Data at: 0029 UTC 11 Dec 2017

KLNN 110015Z AUTO 23009KT 10SM OVC033 M02/M06 A2996 RMK AO1 T10191065
KLNN 102355Z AUTO 24012G15KT 10SM BKN029 OVC035 M02/M06 A2996 RMK AO1 T10211061 11015 21025
KLNN 102335Z AUTO 23013KT 7SM BKN031 OVC038 M02/M07 A2996 RMK AO1 T10201067
KLNN 102315Z AUTO 24010KT 10SM OVC035 M01/M07 A2995 RMK AO1 T10151074
KLNN 102255Z AUTO 24015KT 10SM BKN037 OVC060 M01/M08 A2995 RMK AO1 T10151080
KLNN 102235Z AUTO 24013G17KT 10SM OVC060 M01/M08 A2994 RMK AO1 T10151082
KLNN 102215Z AUTO 24008G16KT 10SM OVC060 M01/M08 A2994 RMK AO1 T10151082
KLNN 102155Z AUTO 24007KT 10SM OVC060 M01/M08 A2993 RMK AO1 T10151083
KLNN 102135Z AUTO 24012KT 10SM OVC060 M02/M08 A2992 RMK AO1 T10171084
KLNN 102115Z AUTO 24009KT 10SM OVC070 M02/M09 A2992 RMK AO1 T10171086
KLNN 102055Z AUTO 23012KT 10SM BKN070 OVC085 M02/M09 A2991 RMK AO1 T10201087
KLNN 102035Z AUTO 23009G14KT 10SM OVC085 M02/M09 A2990 RMK AO1 T10181086
KLNN 102015Z AUTO 24014G22KT 10SM OVC085 M02/M09 A2991 RMK AO1 T10201088
KLNN 101955Z AUTO 23012G19KT 10SM SCT060 OVC085 M02/M09 A2992 RMK AO1 T10201087
KLNN 101935Z AUTO 24015G21KT 10SM BKN060 OVC085 M02/M09 A2992 RMK AO1 T10231087
KLNN 101915Z AUTO 24014KT 10SM BKN070 BKN075 OVC100 M02/M08 A2992 RMK AO1 T10221084
KLNN 101900Z AUTO 24018G22KT 10SM SCT050 BKN070 OVC085 M02/M09 A2992 RMK AO1 T10241089
KLNN 101835Z AUTO 24015G21KT 10SM SCT050 BKN060 OVC085 M02/M09 A2993 RMK AO1 T10251086
KLNN 101815Z AUTO 24015G21KT 10SM OVC060 M02/M08 A2993 RMK AO1 T10251084
KLNN 101755Z AUTO 24020G27KT 10SM SCT029 BKN070 OVC075 M02/M08 A2994 RMK AO1 T10201078 11008 21030
KLNN 101735Z AUTO 23015G23KT 10SM BKN027 BKN055 OVC085 M02/M08 A2995 RMK AO1 T10201076
KLNN 101715Z AUTO 24017G28KT 10SM BKN029 BKN050 OVC075 M02/M07 A2995 RMK AO1 T10181073
KLNN 101655Z AUTO 23020G26KT 10SM BKN026 BKN032 OVC050 M02/M06 A2995 RMK AO1 T10161064
KLNN 101635Z AUTO 23016G21KT 10SM OVC026 M01/M06 A2996 RMK AO1 T10151056
KLNN 101615Z AUTO 25019G23KT 10SM OVC026 M02/M06 A2996 RMK AO1 T10161058
KLNN 101555Z AUTO 24017G22KT 10SM OVC024 M01/M06 A2997 RMK AO1 T10151056
KLNN 101535Z AUTO 24013G21KT 10SM BKN022 BKN028 OVC045 M01/M05 A2997 RMK AO1 T10151051
KLNN 101515Z AUTO 24016G20KT 10SM SCT020 OVC042 M02/M05 A2997 RMK AO1 T10191048
KLNN 101455Z AUTO 23012G19KT 10SM BKN020 OVC044 M02/M05 A2997 RMK AO1 T10221049
KLNN 101435Z AUTO 23011G17KT 10SM OVC018 M02/M05 A2997 RMK AO1 T10241048
KLNN 101415Z AUTO 22012G18KT 10SM SCT018 BKN024 OVC050 M03/M05 A2997 RMK AO1 T10261050
KLNN 101355Z AUTO 23014G19KT 10SM OVC050 M03/M06 A2997 RMK AO1 T10281057
KLNN 101335Z AUTO 23012G17KT 10SM OVC050 M03/M06 A2997 RMK AO1 T10301060
KLNN 101315Z AUTO 23013G20KT 10SM SCT026 SCT036 OVC044 M02/M06 A2997 RMK AO1 T10251060
KLNN 101255Z AUTO 23011G19KT 10SM SCT020 OVC040 M02/M06 A2996 RMK AO1 T10221057
KLNN 101235Z AUTO 23012G18KT 10SM BKN020 BKN026 OVC035 M02/M05 A2995 RMK AO1 T10201051
KLNN 101215Z AUTO 23008KT 10SM SCT020 BKN044 OVC050 M01/M05 A2995 RMK AO1 T10091053
KLNN 101155Z AUTO 28014G20KT 10SM SCT028 SCT040 OVC050 M01/M06 A2995 RMK AO1 T10101061 10000 21010
KLNN 101135Z AUTO 27015G20KT 10SM SCT024 SCT029 OVC050 M01/M06 A2994 RMK AO1 T10101057
KLNN 101115Z AUTO 29017G20KT 10SM SCT022 SCT027 OVC048 M01/M05 A2993 RMK AO1 T10101054
KLNN 101055Z AUTO 28012G21KT 10SM BKN024 BKN028 OVC036 M01/M05 A2992 RMK AO1 T10101046
KLNN 101035Z AUTO 29012G20KT 10SM BKN023 BKN030 OVC039 M01/M05 A2992 RMK AO1 T10071051
KLNN 101015Z AUTO 29014G20KT 10SM BKN023 BKN030 OVC044 M01/M05 A2992 RMK AO1 T10061047
KLNN 100955Z AUTO 30014G21KT 10SM SCT021 BKN026 OVC043 00/M04 A2992 RMK AO1 T10051044
KLNN 100935Z AUTO 29015G19KT 10SM BKN021 BKN035 OVC044 00/M04 A2991 RMK AO1 T10051044
KLNN 100915Z AUTO 30016G21KT 10SM BKN021 BKN027 OVC039 00/M04 A2991 RMK AO1 T10021038
KLNN 100855Z AUTO 30017G20KT 10SM BKN019 OVC025 00/M03 A2991 RMK AO1 T10021035
KLNN 100835Z AUTO 31009G16KT 290V350 10SM BKN021 OVC031 00/M03 A2990 RMK AO1 T10011032
KLNN 100815Z AUTO 31014G19KT 10SM BKN023 OVC033 00/M03 A2990 RMK AO1 T00001035
KLNN 100755Z AUTO 32013G19KT 10SM BKN023 OVC029 00/M04 A2989 RMK AO1 T00001036
KLNN 100735Z AUTO 31013G20KT 10SM BKN021 OVC029 00/M03 A2989 RMK AO1 T00001033
KLNN 100715Z AUTO 30013G21KT 10SM BKN021 OVC029 00/M03 A2988 RMK AO1 T00001035
KLNN 100655Z AUTO 29016G22KT 10SM BKN019 OVC029 00/M03 A2987 RMK AO1 T00001033
KLNN 100635Z AUTO 30012G17KT 10SM BKN019 OVC032 00/M03 A2987 RMK AO1 T00001031
KLNN 100615Z AUTO 29012G17KT 10SM BKN019 BKN029 OVC034 00/M03 A2986 RMK AO1 T00001032
KLNN 100555Z AUTO 31010G15KT 10SM SCT019 BKN028 OVC036 00/M03 A2986 RMK AO1 T10021035 11002 21021
KLNN 100535Z AUTO 31011G16KT 10SM BKN023 OVC028 00/M04 A2985 RMK AO1 T10051042
KLNN 100515Z AUTO 31011G16KT 10SM BKN021 OVC029 00/M04 A2985 RMK AO1 T10051040
KLNN 100455Z AUTO 31009G16KT 10SM BKN022 BKN029 OVC039 00/M04 A2985 RMK AO1 T10051039 400011060
KLNN 100435Z AUTO 30010KT 10SM SCT022 BKN029 OVC039 M01/M04 A2985 RMK AO1 T10061040
KLNN 100415Z AUTO 29012G17KT 10SM BKN022 OVC029 00/M04 A2984 RMK AO1 T10051040
KLNN 100355Z AUTO 30012KT 10SM SCT022 OVC029 00/M04 A2984 RMK AO1 T10051040
KLNN 100335Z AUTO 29010G14KT 10SM BKN020 OVC026 M01/M03 A2983 RMK AO1 T10081034
KLNN 100315Z AUTO 24007KT 10SM OVC016 M02/M03 A2982 RMK AO1 T10171031
KLNN 100255Z AUTO 22008KT 10SM BKN016 OVC021 M02/M03 A2982 RMK AO1 T10181033
KLNN 100235Z AUTO 23006KT 5SM BKN019 OVC025 M02/M03 A2982 RMK AO1 T10201031
KLNN 100215Z AUTO 21007KT 10SM BKN022 OVC028 M02/M03 A2982 RMK AO1 T10201033
KLNN 100155Z AUTO 21008KT 5SM SCT024 BKN028 OVC036 M02/M03 A2982 RMK AO1 T10201033
KLNN 100135Z AUTO 22006KT 4SM SCT030 OVC038 M02/M03 A2982 RMK AO1 T10201035
KLNN 100115Z AUTO 21005KT 10SM BKN042 BKN049 OVC065 M02/M04 A2982 RMK AO1 T10201037
KLNN 100055Z AUTO 20005KT 10SM SCT040 BKN075 OVC095 M02/M04 A2982 RMK AO1 T10201038
KLNN 100035Z AUTO 22006KT 5SM SCT032 BKN050 OVC075 M02/M04 A2982 RMK AO1 T10201040
KLNN 100015Z AUTO 22007KT 7SM SCT042 OVC050 M02/M04 A2981 RMK AO1 T10201043
KLNN 092355Z AUTO 21006KT 7SM BKN050 OVC065 M02/M05 A2981 RMK AO1 T10171046 10001 21017
KLNN 092335Z AUTO 22008KT 10SM SCT050 OVC070 M01/M05 A2980 RMK AO1 T10151055
KLNN 092315Z AUTO 22006KT 10SM OVC070 M01/M06 A2980 RMK AO1 T10121062
KLNN 092255Z AUTO 22007KT 10SM SCT048 OVC060 M01/M06 A2979 RMK AO1 T10121063
KLNN 092235Z AUTO 22004KT 10SM SCT060 OVC070 M01/M07 A2979 RMK AO1 T10101069
KLNN 092215Z AUTO 23004KT 10SM SCT050 OVC070 M01/M07 A2978 RMK AO1 T10101071
KLNN 092155Z AUTO 23006KT 10SM SCT050 OVC070 M01/M07 A2977 RMK AO1 T10101069
KLNN 092135Z AUTO 24009KT 10SM SCT050 BKN070 OVC080 M01/M07 A2977 RMK AO1 T10071072
KLNN 092115Z AUTO 21006KT 10SM BKN050 BKN060 OVC080 00/M08 A2976 RMK AO1 T10051078
KLNN 092055Z AUTO 22008KT 10SM BKN050 BKN060 OVC070 00/M08 A2975 RMK AO1 T10051080
KLNN 092035Z AUTO 22009G15KT 10SM SCT049 SCT060 OVC070 00/M09 A2974 RMK AO1 T10021087
KLNN 092015Z AUTO 24007KT 10SM SCT055 OVC070 00/M11 A2974 RMK AO1 T00001106
KLNN 091955Z AUTO 20007KT 10SM SCT060 OVC070 00/M12 A2973 RMK AO1 T00011122
KLNN 091935Z AUTO 21004KT 10SM OVC060 00/M12 A2972 RMK AO1 T00011116
KLNN 091915Z AUTO 17004KT 10SM OVC060 00/M12 A2972 RMK AO1 T00001120
KLNN 091855Z AUTO 20005KT 10SM OVC070 00/M12 A2973 RMK AO1 T00001124
KLNN 091835Z AUTO 22008G14KT 10SM OVC070 00/M12 A2974 RMK AO1 T00001122
KLNN 091815Z AUTO 19008KT 10SM OVC070 00/M12 A2974 RMK AO1 T10011125
KLNN 091755Z AUTO 21006KT 10SM OVC060 00/M11 A2974 RMK AO1 T10011115 10000 21052
KLNN 091735Z AUTO 22007KT 10SM OVC070 00/M11 A2975 RMK AO1 T10011107
KLNN 091715Z AUTO 20006KT 10SM OVC070 M01/M11 A2975 RMK AO1 T10081107
KLNN 091655Z AUTO 20008G14KT 10SM BKN075 OVC090 M01/M10 A2976 RMK AO1 T10111105
KLNN 091635Z AUTO 20006KT 10SM SCT075 OVC090 M01/M10 A2977 RMK AO1 T10121103
KLNN 091615Z AUTO 21007G16KT 10SM OVC100 M02/M10 A2978 RMK AO1 T10161102
KLNN 091555Z AUTO 21010G16KT 10SM OVC100 M02/M10 A2979 RMK AO1 T10161105
KLNN 091535Z AUTO 20005KT 10SM OVC100 M02/M10 A2979 RMK AO1 T10201101
KLNN 091515Z AUTO 19007KT 10SM OVC100 M03/M10 A2980 RMK AO1 T10271101
KLNN 091455Z AUTO 21007G15KT 160V220 10SM OVC100 M03/M10 A2980 RMK AO1 T10321102
KLNN 091435Z AUTO 18008KT 10SM OVC100 M04/M10 A2981 RMK AO1 T10371100
KLNN 091415Z AUTO 19009KT 10SM OVC110 M04/M10 A2982 RMK AO1 T10401099
KLNN 091355Z AUTO 18009G14KT 10SM OVC110 M04/M10 A2982 RMK AO1 T10421101
KLNN 091335Z AUTO 19007KT 160V220 10SM BKN110 M04/M10 A2983 RMK AO1 T10451104
KLNN 091315Z AUTO 19006KT 10SM BKN120 M05/M10 A2983 RMK AO1 T10461103
KLNN 091255Z AUTO 19006KT 10SM OVC120 M05/M10 A2984 RMK AO1 T10481105
KLNN 091235Z AUTO 18006KT 10SM OVC120 M05/M11 A2983 RMK AO1 T10501107